Time;durP1;ratioP1;P1;durP2;ratioP2;P2;SDS_P1;SDS_P2;PMS_P1;PMS_P2;Temp;Humidity;BMP_temperature;BMP_pressure;BME280_temperature;BME280_humidity;BME280_pressure;Samples;Min_cycle;Max_cycle;Signal;HPM_P1;HPM_P2
2023/08/09 00:00:20;;;;;;;13.68;5.40;;;16.30;99.90;;;;;;5032275;28;20220;-74
2023/08/09 00:02:46;;;;;;;10.13;5.78;;;16.30;99.90;;;;;;5032285;28;20249;-74
2023/08/09 00:05:11;;;;;;;12.60;5.82;;;16.50;99.90;;;;;;5030791;28;20197;-74
2023/08/09 00:07:37;;;;;;;8.95;5.70;;;16.40;99.90;;;;;;5031916;28;20609;-73
2023/08/09 00:10:03;;;;;;;12.43;6.43;;;16.40;99.90;;;;;;5027454;28;20171;-74
2023/08/09 00:12:30;;;;;;;8.80;5.57;;;16.40;99.90;;;;;;5012285;28;20179;-73
2023/08/09 00:14:56;;;;;;;7.18;5.38;;;16.40;99.90;;;;;;5011986;28;20660;-74
2023/08/09 00:17:21;;;;;;;9.13;5.47;;;16.80;99.90;;;;;;5012093;28;20171;-74
2023/08/09 00:19:47;;;;;;;11.88;5.95;;;16.40;99.90;;;;;;5015894;28;20709;-73
2023/08/09 00:22:13;;;;;;;12.27;5.20;;;16.60;99.90;;;;;;5031729;28;20185;-74
2023/08/09 00:24:38;;;;;;;8.00;5.88;;;16.60;99.90;;;;;;5031344;28;20672;-74
2023/08/09 00:27:04;;;;;;;11.20;5.50;;;16.60;99.90;;;;;;5031698;28;20217;-74
2023/08/09 00:29:29;;;;;;;10.68;5.57;;;16.70;99.90;;;;;;5031467;28;20545;-74
2023/08/09 00:31:56;;;;;;;8.40;5.68;;;16.60;99.90;;;;;;5034795;28;20185;-73
2023/08/09 00:34:21;;;;;;;9.13;4.90;;;16.50;99.90;;;;;;5051399;28;20173;-74
2023/08/09 00:36:47;;;;;;;12.25;5.25;;;16.40;99.90;;;;;;5051256;28;20534;-74
2023/08/09 00:39:15;;;;;;;9.20;5.90;;;16.70;99.90;;;;;;5051075;28;20768;-74
2023/08/09 00:41:41;;;;;;;8.90;5.70;;;16.70;99.90;;;;;;5031989;28;20637;-73
2023/08/09 00:44:07;;;;;;;16.38;5.63;;;;;;;;;;5031440;28;20209;-73
2023/08/09 00:46:34;;;;;;;10.18;5.18;;;16.70;99.90;;;;;;5032074;28;20240;-73
2023/08/09 00:49:00;;;;;;;11.50;5.65;;;16.70;99.90;;;;;;5033652;28;20182;-73
2023/08/09 00:51:25;;;;;;;10.10;5.75;;;16.80;99.90;;;;;;5031392;28;20185;-73
2023/08/09 00:53:51;;;;;;;9.32;5.63;;;16.70;99.90;;;;;;5031444;28;20185;-74
2023/08/09 00:56:17;;;;;;;8.43;5.13;;;16.60;99.90;;;;;;5031014;28;20181;-73
2023/08/09 00:58:42;;;;;;;8.18;5.80;;;16.80;99.90;;;;;;5031093;28;20184;-73
2023/08/09 01:01:08;;;;;;;9.75;5.25;;;16.80;99.90;;;;;;5029615;28;20182;-73
2023/08/09 01:03:34;;;;;;;12.10;5.75;;;16.80;99.90;;;;;;5031294;28;20249;-72
2023/08/09 01:06:18;;;;;;;13.90;5.45;;;16.90;99.90;;;;;;5030870;28;20673;-70
2023/08/09 01:08:51;;;;;;;10.20;5.65;;;16.50;99.90;;;;;;5031125;28;20173;-73
2023/08/09 01:11:40;;;;;;;7.88;5.53;;;16.70;99.90;;;;;;5029665;28;20228;-73
2023/08/09 01:14:07;;;;;;;11.85;5.35;;;16.60;99.90;;;;;;5045769;28;20217;-73
2023/08/09 01:16:36;;;;;;;9.23;5.63;;;16.60;99.90;;;;;;5030794;28;20766;-74
2023/08/09 01:19:08;;;;;;;11.85;5.75;;;16.50;99.90;;;;;;5031141;28;20162;-74
2023/08/09 01:21:37;;;;;;;11.13;6.25;;;16.60;99.90;;;;;;5030881;28;20170;-74
2023/08/09 01:24:03;;;;;;;9.38;5.65;;;16.40;99.90;;;;;;5031330;28;20264;-75
2023/08/09 01:26:29;;;;;;;16.50;6.20;;;16.40;99.90;;;;;;5030783;28;20205;-74
2023/08/09 01:28:55;;;;;;;8.75;5.85;;;16.10;99.90;;;;;;5030805;28;20241;-75
2023/08/09 01:31:20;;;;;;;11.02;6.10;;;16.20;99.90;;;;;;5030691;28;20269;-74
2023/08/09 01:33:47;;;;;;;12.75;6.55;;;16.30;99.90;;;;;;5029834;28;20174;-74
2023/08/09 01:36:21;;;;;;;10.82;6.20;;;16.10;99.90;;;;;;5030710;28;20170;-74
2023/08/09 01:39:03;;;;;;;13.63;6.80;;;16.30;99.90;;;;;;5031662;28;20217;-74
2023/08/09 01:41:29;;;;;;;11.63;6.90;;;16.20;99.90;;;;;;5030902;28;20729;-74
2023/08/09 01:43:56;;;;;;;11.80;6.70;;;16.00;99.90;;;;;;5031649;28;20174;-74
2023/08/09 01:46:22;;;;;;;11.27;6.80;;;16.20;99.90;;;;;;5034506;28;20263;-74
2023/08/09 01:48:48;;;;;;;16.20;7.10;;;16.00;99.90;;;;;;5034930;28;20170;-73
2023/08/09 01:51:14;;;;;;;12.52;6.55;;;16.10;99.90;;;;;;5034917;28;20178;-74
2023/08/09 01:53:39;;;;;;;14.15;6.78;;;15.90;99.90;;;;;;5033243;28;20178;-74
2023/08/09 01:56:05;;;;;;;11.57;6.80;;;16.00;99.90;;;;;;5034604;28;20196;-72
2023/08/09 01:58:31;;;;;;;11.70;7.63;;;16.00;99.90;;;;;;5034597;28;20166;-73
2023/08/09 02:00:57;;;;;;;14.75;7.07;;;16.00;99.90;;;;;;5033177;28;20576;-74
2023/08/09 02:03:25;;;;;;;11.88;6.72;;;16.00;99.90;;;;;;5034512;28;20204;-74
2023/08/09 02:05:51;;;;;;;12.45;6.70;;;16.00;99.90;;;;;;5034226;28;20202;-74
2023/08/09 02:08:17;;;;;;;13.50;6.18;;;15.70;99.90;;;;;;5033005;28;20601;-75
2023/08/09 02:10:43;;;;;;;11.40;6.47;;;15.70;99.90;;;;;;5034478;28;20173;-74
2023/08/09 02:13:08;;;;;;;17.33;7.15;;;16.00;99.90;;;;;;5034587;28;20170;-73
2023/08/09 02:15:34;;;;;;;14.07;7.18;;;15.90;99.90;;;;;;5034317;28;20870;-74
2023/08/09 02:18:00;;;;;;;17.77;7.07;;;15.90;99.90;;;;;;5034419;28;20653;-73
2023/08/09 02:20:27;;;;;;;15.18;7.53;;;16.00;99.90;;;;;;5054001;28;20173;-73
2023/08/09 02:22:52;;;;;;;13.07;7.00;;;16.00;99.90;;;;;;5054115;28;20165;-73
2023/08/09 02:25:18;;;;;;;10.48;6.78;;;16.10;99.90;;;;;;5054000;28;20183;-73
2023/08/09 02:27:43;;;;;;;13.00;6.38;;;16.00;99.90;;;;;;5054033;28;20304;-73
2023/08/09 02:30:09;;;;;;;14.88;6.90;;;17.00;99.90;;;;;;5034247;28;20661;-71
2023/08/09 02:32:36;;;;;;;17.85;6.68;;;15.90;99.90;;;;;;5033943;28;20728;-70
2023/08/09 02:35:03;;;;;;;12.18;6.45;;;16.30;99.90;;;;;;5033987;28;20249;-73
2023/08/09 02:37:29;;;;;;;10.70;6.40;;;16.10;99.90;;;;;;5047896;28;20177;-73
2023/08/09 02:39:56;;;;;;;11.15;6.40;;;;;;;;;;5052354;28;20174;-74
2023/08/09 02:42:22;;;;;;;11.50;6.65;;;16.10;99.90;;;;;;5054376;28;20173;-74
2023/08/09 02:44:47;;;;;;;14.13;6.88;;;16.10;99.90;;;;;;5034309;28;20188;-72
2023/08/09 02:47:13;;;;;;;13.90;6.22;;;16.00;99.90;;;;;;5032572;28;20213;-75
2023/08/09 02:49:39;;;;;;;10.57;6.30;;;15.90;99.90;;;;;;5032315;28;20244;-74
2023/08/09 02:52:05;;;;;;;13.55;6.13;;;16.00;99.90;;;;;;5032496;28;20170;-74
2023/08/09 02:54:30;;;;;;;11.48;6.57;;;15.70;99.90;;;;;;5032239;28;20182;-73
2023/08/09 02:56:56;;;;;;;10.38;6.93;;;15.80;99.90;;;;;;5032160;28;20189;-73
2023/08/09 02:59:21;;;;;;;13.15;6.07;;;15.50;99.90;;;;;;5032446;28;20668;-74
2023/08/09 03:01:48;;;;;;;13.65;6.50;;;15.70;99.90;;;;;;5032436;28;20223;-74
2023/08/09 03:04:13;;;;;;;11.48;7.28;;;15.70;99.90;;;;;;5032339;28;20177;-73
2023/08/09 03:06:39;;;;;;;13.88;6.47;;;15.60;99.90;;;;;;5027322;28;20209;-73
2023/08/09 03:09:06;;;;;;;12.65;6.55;;;16.00;99.90;;;;;;5023205;28;20637;-74
2023/08/09 03:11:32;;;;;;;10.88;5.70;;;15.60;99.90;;;;;;5012213;28;20170;-74
2023/08/09 03:13:57;;;;;;;10.52;5.70;;;15.50;99.90;;;;;;5026164;28;20170;-74
2023/08/09 03:16:23;;;;;;;9.57;6.00;;;15.50;99.90;;;;;;5031768;28;20263;-74
2023/08/09 03:18:49;;;;;;;10.02;5.75;;;15.40;99.90;;;;;;5031908;28;20170;-74
2023/08/09 03:21:15;;;;;;;7.63;5.85;;;15.90;99.90;;;;;;5032482;28;20186;-73
2023/08/09 03:23:40;;;;;;;11.50;6.47;;;15.30;99.90;;;;;;5031927;28;20202;-73
2023/08/09 03:26:06;;;;;;;17.92;6.43;;;15.30;99.90;;;;;;5017696;28;20292;-73
2023/08/09 03:28:33;;;;;;;9.63;5.90;;;15.20;99.90;;;;;;5019586;28;20193;-73
2023/08/09 03:30:58;;;;;;;13.75;6.32;;;15.20;99.90;;;;;;5031794;28;20177;-72
2023/08/09 03:33:25;;;;;;;9.63;5.88;;;15.20;99.90;;;;;;5031728;28;20178;-73
2023/08/09 03:35:51;;;;;;;10.15;5.63;;;15.20;99.90;;;;;;5031796;28;20166;-73
2023/08/09 03:38:17;;;;;;;11.68;5.63;;;;;;;;;;4989595;28;1217829;-73
2023/08/09 03:40:43;;;;;;;12.63;5.82;;;15.00;99.90;;;;;;5032644;28;20196;-74
2023/08/09 03:43:09;;;;;;;12.57;5.57;;;15.00;99.90;;;;;;5032800;28;20632;-73
2023/08/09 03:45:35;;;;;;;9.52;5.05;;;15.10;99.90;;;;;;5032361;28;20533;-74
2023/08/09 03:48:00;;;;;;;15.65;6.05;;;15.10;99.90;;;;;;5033737;28;20669;-73
2023/08/09 03:50:26;;;;;;;9.63;5.40;;;15.00;99.90;;;;;;5032292;28;20696;-73
2023/08/09 03:52:52;;;;;;;11.00;5.03;;;15.10;99.90;;;;;;5032689;28;20170;-73
2023/08/09 03:55:18;;;;;;;11.25;5.40;;;15.00;99.90;;;;;;5032279;28;20168;-74
2023/08/09 03:57:43;;;;;;;11.82;4.70;;;14.80;99.90;;;;;;5032448;28;20174;-73
2023/08/09 04:00:17;;;;;;;6.85;4.35;;;15.10;99.90;;;;;;5032249;28;20196;-73
2023/08/09 04:02:43;;;;;;;9.32;4.40;;;;;;;;;;5032279;28;20174;-73
2023/08/09 04:05:08;;;;;;;11.60;4.65;;;14.80;99.90;;;;;;5032496;28;20181;-73
2023/08/09 04:07:34;;;;;;;9.00;4.43;;;15.60;99.90;;;;;;5031396;28;20676;-73
2023/08/09 04:10:00;;;;;;;10.65;4.25;;;15.00;99.90;;;;;;5032050;28;20170;-73
2023/08/09 04:12:25;;;;;;;10.27;4.32;;;14.80;99.90;;;;;;5032130;28;20261;-73
2023/08/09 04:14:51;;;;;;;9.25;4.45;;;14.80;99.90;;;;;;5032206;28;20556;-74
2023/08/09 04:17:16;;;;;;;12.25;4.43;;;14.70;99.90;;;;;;5032067;28;20192;-73
2023/08/09 04:19:42;;;;;;;10.38;4.65;;;14.70;99.90;;;;;;5030658;28;20186;-73
2023/08/09 04:22:08;;;;;;;8.50;4.72;;;14.60;99.90;;;;;;5032806;28;20236;-73
2023/08/09 04:24:34;;;;;;;10.60;4.63;;;14.80;99.90;;;;;;5032178;28;20182;-74
2023/08/09 04:27:00;;;;;;;9.82;4.43;;;14.70;99.90;;;;;;5031637;28;20201;-74
2023/08/09 04:29:27;;;;;;;9.88;4.32;;;14.60;99.90;;;;;;5030660;28;20231;-73
2023/08/09 04:31:52;;;;;;;10.15;4.82;;;14.60;99.90;;;;;;5031825;28;20273;-73
2023/08/09 04:34:18;;;;;;;7.95;4.35;;;14.60;99.90;;;;;;5031696;28;20647;-74
2023/08/09 04:36:44;;;;;;;8.82;4.45;;;14.60;99.90;;;;;;5031612;28;20170;-74
2023/08/09 04:39:10;;;;;;;9.77;3.88;;;14.60;99.90;;;;;;5031401;28;20222;-73
2023/08/09 04:41:36;;;;;;;8.80;4.50;;;14.60;99.90;;;;;;5042483;28;20203;-73
2023/08/09 04:44:02;;;;;;;13.63;4.40;;;14.60;99.90;;;;;;5051378;28;20172;-73
2023/08/09 04:46:27;;;;;;;11.13;4.32;;;14.60;99.90;;;;;;5051182;28;20255;-73
2023/08/09 04:48:53;;;;;;;8.82;4.57;;;14.60;99.90;;;;;;5051329;28;20739;-72
2023/08/09 04:51:18;;;;;;;5.82;3.88;;;14.50;99.90;;;;;;5042194;28;20178;-73
2023/08/09 04:53:44;;;;;;;8.88;3.97;;;14.60;99.90;;;;;;5031418;28;20178;-72
2023/08/09 04:56:10;;;;;;;8.82;4.60;;;14.50;99.90;;;;;;5031300;28;20213;-72
2023/08/09 04:58:37;;;;;;;10.23;4.03;;;17.00;99.90;;;;;;5031334;28;20169;-72
2023/08/09 05:01:03;;;;;;;9.05;4.30;;;14.60;99.90;;;;;;5031342;28;20205;-73
2023/08/09 05:03:29;;;;;;;9.40;4.50;;;14.50;99.90;;;;;;5031230;28;20228;-72
2023/08/09 05:05:54;;;;;;;8.68;4.60;;;14.50;99.90;;;;;;5031073;28;20205;-73
2023/08/09 05:08:20;;;;;;;9.00;3.92;;;14.50;99.90;;;;;;5031372;28;20174;-73
2023/08/09 05:10:46;;;;;;;6.88;4.47;;;14.20;99.90;;;;;;5031336;28;20185;-72
2023/08/09 05:13:11;;;;;;;11.35;4.50;;;14.50;99.90;;;;;;5031173;28;20182;-73
2023/08/09 05:15:37;;;;;;;6.32;3.95;;;14.50;99.90;;;;;;5031104;28;20178;-74
2023/08/09 05:18:03;;;;;;;12.15;4.40;;;14.50;99.90;;;;;;5031034;28;20185;-72
2023/08/09 05:20:29;;;;;;;7.25;4.30;;;14.40;99.90;;;;;;5030907;28;20180;-74
2023/08/09 05:22:54;;;;;;;9.85;4.60;;;14.40;99.90;;;;;;5031036;28;20252;-74
2023/08/09 05:25:20;;;;;;;9.15;4.15;;;14.40;99.90;;;;;;5030936;28;20173;-73
2023/08/09 05:27:47;;;;;;;11.13;4.97;;;14.30;99.90;;;;;;5017911;28;20229;-73
2023/08/09 05:30:14;;;;;;;11.90;4.93;;;14.40;99.90;;;;;;5030144;28;20266;-73
2023/08/09 05:32:40;;;;;;;8.48;4.85;;;14.40;99.90;;;;;;5024411;28;20213;-73
2023/08/09 05:35:06;;;;;;;8.48;5.30;;;14.90;99.90;;;;;;5016783;28;20264;-73
2023/08/09 05:37:32;;;;;;;8.82;5.45;;;;;;;;;;5030114;28;20181;-74
2023/08/09 05:39:57;;;;;;;17.52;5.60;;;14.40;99.90;;;;;;5030619;28;20185;-74
2023/08/09 05:42:23;;;;;;;13.98;5.60;;;14.50;99.90;;;;;;5031633;28;20174;-74
2023/08/09 05:44:49;;;;;;;9.48;5.65;;;14.50;99.90;;;;;;5024442;28;20182;-74
2023/08/09 05:47:15;;;;;;;10.02;6.10;;;;;;;;;;5029757;28;20576;-73
2023/08/09 05:49:41;;;;;;;8.93;5.03;;;14.60;99.90;;;;;;5030326;28;20268;-72
2023/08/09 05:52:07;;;;;;;12.43;5.80;;;14.70;99.90;;;;;;5030541;28;20265;-73
2023/08/09 05:54:32;;;;;;;11.15;5.60;;;14.70;99.90;;;;;;5030255;28;20185;-73
2023/08/09 05:57:00;;;;;;;9.02;5.28;;;14.60;99.90;;;;;;5030440;28;20247;-73
2023/08/09 05:59:26;;;;;;;12.05;5.97;;;14.80;99.90;;;;;;5030492;28;20177;-73
2023/08/09 06:01:51;;;;;;;11.82;4.97;;;14.60;99.90;;;;;;5030094;28;20170;-73
2023/08/09 06:04:17;;;;;;;11.25;5.80;;;14.70;99.90;;;;;;5029281;28;20309;-73
2023/08/09 06:06:43;;;;;;;11.57;6.00;;;14.50;99.90;;;;;;5030037;28;20699;-73
2023/08/09 06:09:09;;;;;;;16.90;6.03;;;14.70;99.90;;;;;;5030403;28;20170;-73
2023/08/09 06:11:35;;;;;;;10.48;5.82;;;14.70;99.90;;;;;;5031082;28;20181;-73
2023/08/09 06:14:01;;;;;;;11.80;6.43;;;14.80;99.90;;;;;;5030628;28;20248;-72
2023/08/09 06:16:27;;;;;;;14.45;6.72;;;14.90;99.90;;;;;;5032081;28;20186;-74
2023/08/09 06:18:53;;;;;;;12.85;6.10;;;15.00;99.90;;;;;;5050079;28;20255;-74
2023/08/09 06:21:18;;;;;;;12.20;6.90;;;15.00;99.90;;;;;;5044215;28;20212;-74
2023/08/09 06:23:44;;;;;;;15.23;6.88;;;15.10;99.90;;;;;;5030169;28;20209;-72
2023/08/09 06:26:09;;;;;;;12.25;6.35;;;15.10;99.90;;;;;;5030119;28;20692;-73
2023/08/09 06:28:35;;;;;;;15.18;6.88;;;15.10;99.90;;;;;;5030328;28;20657;-73
2023/08/09 06:31:01;;;;;;;12.75;6.75;;;15.20;99.90;;;;;;5032775;28;20181;-73
2023/08/09 06:33:26;;;;;;;10.75;6.57;;;15.50;99.90;;;;;;5045243;28;20177;-73
2023/08/09 06:35:52;;;;;;;11.80;6.53;;;15.40;99.90;;;;;;5052382;28;20515;-72
2023/08/09 06:38:18;;;;;;;11.68;6.32;;;;;;;;;;5053718;28;20220;-72
2023/08/09 06:40:44;;;;;;;11.02;6.10;;;15.50;99.90;;;;;;5053594;28;20597;-73
2023/08/09 06:43:09;;;;;;;10.77;6.82;;;15.50;99.90;;;;;;5042509;28;20185;-72
2023/08/09 06:45:35;;;;;;;10.25;5.78;;;15.60;99.90;;;;;;5033746;28;20165;-71
2023/08/09 06:48:01;;;;;;;10.32;6.30;;;15.50;99.90;;;;;;5033647;28;20173;-73
2023/08/09 06:50:27;;;;;;;11.50;6.53;;;15.60;99.90;;;;;;5033571;28;20261;-72
2023/08/09 06:52:53;;;;;;;9.48;5.97;;;15.90;99.90;;;;;;5033539;28;20178;-74
2023/08/09 06:55:18;;;;;;;11.60;5.60;;;16.00;99.90;;;;;;5047167;28;20259;-73
2023/08/09 06:57:44;;;;;;;9.35;5.47;;;15.90;99.90;;;;;;5051361;28;20204;-72
2023/08/09 07:00:16;;;;;;;11.50;6.07;;;16.50;99.90;;;;;;5048127;28;20698;-74
2023/08/09 07:02:45;;;;;;;7.25;5.38;;;16.10;99.90;;;;;;5032301;28;20177;-71
2023/08/09 07:05:15;;;;;;;11.32;5.22;;;;;;;;;;5037081;28;20169;-70
2023/08/09 07:07:47;;;;;;;8.65;4.97;;;16.40;99.90;;;;;;5036633;28;20206;-70
2023/08/09 07:10:15;;;;;;;8.57;5.05;;;16.40;99.90;;;;;;5032784;28;20170;-70
2023/08/09 07:12:41;;;;;;;7.13;4.20;;;16.20;99.90;;;;;;5032386;28;20166;-70
2023/08/09 07:15:08;;;;;;;7.95;4.20;;;16.60;99.90;;;;;;5032950;28;20207;-70
2023/08/09 07:17:37;;;;;;;5.53;4.07;;;16.20;99.90;;;;;;5031261;28;20189;-70
2023/08/09 07:20:11;;;;;;;7.90;4.20;;;16.60;99.90;;;;;;5044419;28;20174;-69
2023/08/09 07:22:37;;;;;;;6.10;3.10;;;16.90;99.90;;;;;;5021150;28;20191;-70
2023/08/09 07:25:03;;;;;;;8.65;3.80;;;17.00;99.90;;;;;;5033949;28;20174;-70
2023/08/09 07:27:30;;;;;;;4.97;3.25;;;17.00;99.90;;;;;;5035795;28;20212;-69
2023/08/09 07:29:55;;;;;;;8.07;2.80;;;17.10;99.90;;;;;;5036519;28;20668;-69
2023/08/09 07:32:21;;;;;;;10.77;3.58;;;17.40;99.90;;;;;;5032471;28;20177;-69
2023/08/09 07:34:47;;;;;;;6.65;3.55;;;17.40;99.90;;;;;;5032452;28;20192;-70
2023/08/09 07:37:12;;;;;;;7.07;3.33;;;17.30;99.90;;;;;;5032291;28;20170;-69
2023/08/09 07:39:38;;;;;;;5.22;3.22;;;17.20;99.90;;;;;;5032254;28;20249;-69
2023/08/09 07:42:03;;;;;;;6.30;2.95;;;17.40;99.90;;;;;;5031045;28;20532;-69
2023/08/09 07:44:29;;;;;;;5.60;3.28;;;17.50;99.90;;;;;;5032913;28;20288;-69
2023/08/09 07:46:55;;;;;;;7.63;3.33;;;17.50;99.90;;;;;;5032342;28;20209;-69
2023/08/09 07:49:20;;;;;;;6.45;3.38;;;17.60;99.90;;;;;;5032525;28;20184;-69
2023/08/09 07:51:46;;;;;;;7.78;3.22;;;17.70;99.90;;;;;;5032075;28;20198;-70
2023/08/09 07:54:12;;;;;;;5.55;2.85;;;17.80;99.90;;;;;;5033325;28;20166;-70
2023/08/09 07:56:38;;;;;;;6.78;2.90;;;17.80;99.90;;;;;;5043958;28;20204;-70
2023/08/09 07:59:04;;;;;;;4.18;2.33;;;18.00;99.90;;;;;;5052278;28;20169;-72
2023/08/09 08:01:31;;;;;;;4.78;2.50;;;18.20;99.90;;;;;;5052064;28;20276;-70
2023/08/09 08:03:57;;;;;;;6.43;2.85;;;18.10;99.90;;;;;;5052184;28;20254;-70
2023/08/09 08:06:23;;;;;;;5.10;2.97;;;18.50;99.90;;;;;;5051564;28;20299;-72
2023/08/09 08:08:48;;;;;;;4.80;2.60;;;18.30;99.90;;;;;;5051796;28;20162;-71
2023/08/09 08:11:14;;;;;;;5.53;2.70;;;18.30;99.90;;;;;;5049909;28;20165;-71
2023/08/09 08:13:39;;;;;;;4.40;2.67;;;18.40;99.90;;;;;;5050431;28;20169;-71
2023/08/09 08:16:05;;;;;;;5.32;2.67;;;18.60;99.90;;;;;;5051832;28;20262;-72
2023/08/09 08:18:31;;;;;;;7.38;2.42;;;18.50;99.90;;;;;;5050536;28;20177;-71
2023/08/09 08:20:58;;;;;;;5.90;2.53;;;18.70;99.90;;;;;;5048510;28;20544;-72
2023/08/09 08:23:24;;;;;;;7.25;3.00;;;18.60;99.90;;;;;;5050348;28;20201;-71
2023/08/09 08:25:50;;;;;;;6.22;2.30;;;18.70;99.90;;;;;;5034310;28;20214;-72
2023/08/09 08:28:15;;;;;;;6.18;2.60;;;18.80;99.90;;;;;;5025844;28;20181;-71
2023/08/09 08:30:41;;;;;;;3.60;2.20;;;19.40;99.90;;;;;;5031626;28;20633;-70
2023/08/09 08:33:08;;;;;;;10.68;2.90;;;19.40;99.90;;;;;;5042418;28;20208;-70
2023/08/09 08:35:36;;;;;;;5.43;2.60;;;20.80;99.90;;;;;;5032659;28;20233;-70
2023/08/09 08:38:03;;;;;;;8.15;2.80;;;21.50;99.90;;;;;;5031651;28;20255;-70
2023/08/09 08:40:31;;;;;;;8.43;2.55;;;21.40;99.90;;;;;;5031247;28;20166;-70
2023/08/09 08:42:57;;;;;;;6.20;2.15;;;22.30;99.90;;;;;;5039432;28;20211;-72
2023/08/09 08:45:23;;;;;;;5.50;2.50;;;22.60;99.90;;;;;;5031384;28;20174;-70
2023/08/09 08:47:49;;;;;;;8.73;3.05;;;22.70;99.90;;;;;;5031145;28;20220;-69
2023/08/09 08:50:16;;;;;;;5.95;2.58;;;22.90;99.90;;;;;;5035640;28;20261;-69
2023/08/09 08:52:46;;;;;;;7.72;3.05;;;22.80;99.90;;;;;;5049357;28;20177;-71
2023/08/09 08:55:12;;;;;;;8.60;2.60;;;22.90;99.90;;;;;;5047335;28;20211;-70
2023/08/09 08:57:39;;;;;;;6.90;2.50;;;23.20;99.90;;;;;;5048986;28;20268;-70
2023/08/09 09:00:15;;;;;;;8.02;2.33;;;23.50;99.90;;;;;;5038654;28;20213;-73
2023/08/09 09:02:46;;;;;;;6.85;2.42;;;23.70;99.90;;;;;;5030588;28;20185;-71
2023/08/09 09:05:19;;;;;;;6.18;2.00;;;23.80;99.90;;;;;;5030885;28;20178;-73
2023/08/09 09:07:46;;;;;;;6.75;1.83;;;24.50;99.90;;;;;;5030833;28;20611;-71
2023/08/09 09:10:13;;;;;;;4.88;2.10;;;24.80;99.90;;;;;;5038397;28;20169;-71
2023/08/09 09:12:39;;;;;;;4.88;1.90;;;24.60;99.90;;;;;;5050800;28;20169;-74
2023/08/09 09:15:06;;;;;;;4.40;1.83;;;24.60;99.90;;;;;;5049658;28;20188;-72
2023/08/09 09:17:44;;;;;;;7.75;2.00;;;24.50;99.90;;;;;;5035560;28;20178;-72
2023/08/09 09:20:27;;;;;;;4.78;1.60;;;24.10;99.90;;;;;;5024339;28;20174;-72
2023/08/09 09:22:53;;;;;;;3.65;1.63;;;23.90;99.90;;;;;;5030858;28;20714;-73
2023/08/09 09:25:19;;;;;;;8.68;2.30;;;24.20;99.90;;;;;;5030864;28;20176;-73
2023/08/09 09:27:49;;;;;;;7.45;2.45;;;23.90;99.90;;;;;;5029575;28;20300;-71
2023/08/09 09:30:15;;;;;;;5.72;2.10;;;24.10;99.90;;;;;;5030874;28;20641;-71
2023/08/09 09:32:51;;;;;;;4.57;1.67;;;23.90;99.90;;;;;;5033858;28;20173;-70
2023/08/09 09:35:20;;;;;;;5.63;2.47;;;23.80;99.90;;;;;;5030209;28;20170;-71
2023/08/09 09:37:47;;;;;;;3.80;2.40;;;23.20;99.90;;;;;;5029399;28;20295;-71
2023/08/09 09:40:22;;;;;;;4.00;2.20;;;23.00;99.90;;;;;;5028370;28;20182;-71
2023/08/09 09:42:52;;;;;;;4.82;2.30;;;23.20;99.90;;;;;;5029437;28;20268;-71
2023/08/09 09:45:24;;;;;;;4.25;2.33;;;23.10;99.90;;;;;;5030889;28;20170;-71
2023/08/09 09:47:51;;;;;;;6.05;2.65;;;23.20;99.90;;;;;;5030492;28;20301;-71
2023/08/09 09:50:20;;;;;;;5.13;2.55;;;23.70;99.90;;;;;;5031250;28;20178;-72
2023/08/09 09:52:48;;;;;;;8.18;2.50;;;23.70;86.40;;;;;;5030396;28;20177;-72
2023/08/09 09:55:16;;;;;;;3.25;2.45;;;23.60;20.70;;;;;;5030665;28;20193;-71
2023/08/09 09:57:42;;;;;;;5.40;2.35;;;24.10;1.00;;;;;;5029230;28;20181;-71
2023/08/09 10:00:32;;;;;;;9.00;2.10;;;24.00;99.90;;;;;;5030780;28;20540;-71
2023/08/09 10:03:00;;;;;;;3.83;1.88;;;23.30;1.00;;;;;;5030117;28;20726;-71
2023/08/09 10:05:40;;;;;;;4.82;2.25;;;23.50;1.00;;;;;;5032913;28;20225;-71
2023/08/09 10:08:10;;;;;;;4.80;2.30;;;23.70;1.00;;;;;;5035137;28;20190;-73
2023/08/09 10:10:38;;;;;;;4.70;2.60;;;24.00;1.00;;;;;;5032954;28;20181;-72
2023/08/09 10:13:05;;;;;;;4.05;2.28;;;23.90;1.00;;;;;;5034463;28;20174;-71
2023/08/09 10:15:58;;;;;;;2.72;2.00;;;24.10;99.90;;;;;;5034247;28;20232;-72
2023/08/09 10:18:41;;;;;;;7.65;2.13;;;24.50;99.90;;;;;;5034120;28;20252;-72
2023/08/09 10:21:10;;;;;;;5.38;2.08;;;24.80;1.00;;;;;;5033976;28;20636;-71
2023/08/09 10:23:35;;;;;;;2.85;1.73;;;25.00;1.00;;;;;;5034197;28;20173;-71
2023/08/09 10:26:01;;;;;;;4.50;2.20;;;25.10;1.00;;;;;;5033943;28;20209;-71
2023/08/09 10:28:39;;;;;;;4.15;2.13;;;25.40;99.90;;;;;;5033965;28;20555;-71
2023/08/09 10:31:05;;;;;;;6.25;2.28;;;25.70;99.90;;;;;;5034156;28;20248;-71
2023/08/09 10:33:34;;;;;;;3.20;1.60;;;25.90;1.00;;;;;;5032608;28;20637;-71
2023/08/09 10:35:59;;;;;;;5.40;1.73;;;26.70;1.00;;;;;;5033760;28;20166;-71
2023/08/09 10:38:31;;;;;;;3.75;1.60;;;26.60;1.00;;;;;;5033776;28;20711;-71
2023/08/09 10:40:57;;;;;;;2.13;1.40;;;26.80;8.60;;;;;;5032186;28;20236;-71
2023/08/09 10:43:24;;;;;;;2.97;1.58;;;27.10;1.00;;;;;;5033861;28;20166;-71
2023/08/09 10:45:53;;;;;;;3.28;1.20;;;27.20;1.00;;;;;;5033732;28;20206;-70
2023/08/09 10:48:24;;;;;;;6.15;1.48;;;27.10;99.90;;;;;;5033683;28;20178;-70
2023/08/09 10:51:12;;;;;;;4.50;1.38;;;27.40;1.00;;;;;;5032495;28;20162;-71
2023/08/09 10:53:57;;;;;;;2.28;1.30;;;27.80;1.00;;;;;;5033673;28;20193;-71
2023/08/09 10:56:41;;;;;;;3.05;1.63;;;28.10;1.00;;;;;;5033428;28;20704;-71
2023/08/09 10:59:15;;;;;;;3.30;1.20;;;27.90;1.00;;;;;;5033498;28;20170;-71
2023/08/09 11:01:42;;;;;;;3.10;1.20;;;27.90;99.90;;;;;;5033306;28;20181;-71
2023/08/09 11:04:09;;;;;;;1.95;1.20;;;27.30;99.90;;;;;;5024078;28;20186;-71
2023/08/09 11:06:35;;;;;;;3.28;1.30;;;28.20;99.90;;;;;;5029032;28;20221;-71
2023/08/09 11:09:21;;;;;;;3.25;1.00;;;28.10;64.50;;;;;;5030114;28;20183;-71
2023/08/09 11:11:48;;;;;;;2.35;1.10;;;28.20;1.00;;;;;;5013094;28;20573;-71
2023/08/09 11:14:19;;;;;;;6.47;1.05;;;29.00;1.00;;;;;;5013139;28;20178;-71
2023/08/09 11:16:46;;;;;;;3.78;1.15;;;29.00;1.00;;;;;;5013111;28;20221;-71
2023/08/09 11:19:16;;;;;;;2.75;0.90;;;29.00;1.00;;;;;;5013328;28;20664;-71
2023/08/09 11:21:53;;;;;;;2.90;1.17;;;29.20;1.00;;;;;;5013369;28;20175;-72
2023/08/09 11:24:21;;;;;;;3.42;0.93;;;30.30;1.00;;;;;;4656478;23;20233;-71
2023/08/09 11:26:48;;;;;;;2.80;0.75;;;29.30;1.00;;;;;;5053007;28;20217;-70
2023/08/09 11:29:15;;;;;;;4.80;0.95;;;29.30;3.70;;;;;;5044470;28;20292;-71
2023/08/09 11:31:42;;;;;;;5.68;0.98;;;29.80;99.90;;;;;;5033010;28;20173;-71
2023/08/09 11:34:10;;;;;;;4.25;1.45;;;30.30;1.00;;;;;;5033018;28;20219;-71
2023/08/09 11:36:36;;;;;;;1.77;0.90;;;30.50;99.90;;;;;;5033056;28;20223;-71
2023/08/09 11:39:04;;;;;;;2.55;0.90;;;30.90;99.90;;;;;;5032779;28;20173;-71
2023/08/09 11:41:44;;;;;;;3.38;0.70;;;29.70;1.00;;;;;;5032657;28;20510;-71
2023/08/09 11:44:12;;;;;;;1.58;0.90;;;29.80;1.00;;;;;;5032979;28;20189;-70
2023/08/09 11:46:42;;;;;;;4.22;0.90;;;29.50;1.00;;;;;;5032514;28;20228;-71
2023/08/09 11:49:08;;;;;;;1.17;0.70;;;29.60;1.00;;;;;;5032778;28;20182;-72
2023/08/09 11:51:35;;;;;;;2.67;1.00;;;30.20;1.00;;;;;;5032513;28;20180;-72
2023/08/09 11:54:02;;;;;;;4.90;0.95;;;30.20;1.00;;;;;;5032663;28;20283;-72
2023/08/09 11:56:35;;;;;;;1.48;0.90;;;30.10;1.00;;;;;;5032560;28;20181;-72
2023/08/09 11:59:03;;;;;;;2.72;0.90;;;30.80;1.00;;;;;;5032575;28;20180;-71
2023/08/09 12:01:34;;;;;;;2.03;0.80;;;31.00;99.90;;;;;;5032801;28;20321;-72
2023/08/09 12:04:05;;;;;;;3.25;1.10;;;31.00;99.90;;;;;;5032301;28;20260;-71
2023/08/09 12:06:34;;;;;;;2.67;0.77;;;29.90;99.90;;;;;;5032293;28;20201;-72
2023/08/09 12:09:00;;;;;;;2.25;0.80;;;30.30;99.90;;;;;;5032219;28;20694;-72
2023/08/09 12:11:26;;;;;;;3.22;0.77;;;30.40;99.90;;;;;;5032085;28;20178;-71
2023/08/09 12:13:51;;;;;;;2.75;1.00;;;30.60;99.90;;;;;;5030891;28;20300;-72
2023/08/09 12:16:17;;;;;;;1.25;0.68;;;32.00;99.90;;;;;;5031976;28;20169;-72
2023/08/09 12:18:43;;;;;;;1.58;0.70;;;;;;;;;;5032026;28;20169;-72
2023/08/09 12:21:08;;;;;;;1.00;0.60;;;31.60;67.50;;;;;;5031945;28;20173;-70
2023/08/09 12:23:36;;;;;;;3.30;0.50;;;31.50;6.60;;;;;;5031987;28;20176;-71
2023/08/09 12:26:03;;;;;;;1.02;0.50;;;31.50;3.20;;;;;;5031598;28;20229;-71
2023/08/09 12:28:29;;;;;;;2.33;0.60;;;31.10;1.00;;;;;;5031216;28;20642;-70
2023/08/09 12:30:55;;;;;;;1.42;0.40;;;31.10;1.00;;;;;;5031897;28;20165;-71
2023/08/09 12:33:20;;;;;;;0.90;0.60;;;30.90;1.00;;;;;;5030434;28;20184;-71
2023/08/09 12:35:46;;;;;;;0.75;0.60;;;31.20;37.20;;;;;;5031917;28;20205;-71
2023/08/09 12:38:12;;;;;;;0.43;0.43;;;;;;;;;;5031629;28;20271;-71
2023/08/09 12:40:38;;;;;;;2.25;0.60;;;30.70;1.00;;;;;;5031190;28;20184;-70
2023/08/09 12:43:04;;;;;;;4.05;0.70;;;30.10;1.00;;;;;;5031690;28;20550;-70
2023/08/09 12:45:30;;;;;;;0.55;0.50;;;30.60;1.00;;;;;;5031659;28;20248;-71
2023/08/09 12:47:55;;;;;;;0.60;0.57;;;31.10;1.00;;;;;;5031518;28;20763;-71